sensor_id;sensor_type;location;lat;lon;timestamp;temperature;humidity
48208;DHT22;33997;53.278;9.708;2022-09-01T00:01:11;12.50;82.00
48208;DHT22;33997;53.278;9.708;2022-09-01T00:03:45;12.40;81.80
48208;DHT22;33997;53.278;9.708;2022-09-01T00:06:14;12.40;82.20
48208;DHT22;33997;53.278;9.708;2022-09-01T00:08:39;12.30;82.50
48208;DHT22;33997;53.278;9.708;2022-09-01T00:11:05;12.30;82.00
48208;DHT22;33997;53.278;9.708;2022-09-01T00:13:30;12.20;82.40
48208;DHT22;33997;53.278;9.708;2022-09-01T00:15:59;12.20;82.70
48208;DHT22;33997;53.278;9.708;2022-09-01T00:18:25;12.10;82.70
48208;DHT22;33997;53.278;9.708;2022-09-01T00:20:50;12.10;83.00
48208;DHT22;33997;53.278;9.708;2022-09-01T00:23:16;12.10;83.20
48208;DHT22;33997;53.278;9.708;2022-09-01T00:25:41;12.10;83.00
48208;DHT22;33997;53.278;9.708;2022-09-01T00:28:07;12.00;83.40
48208;DHT22;33997;53.278;9.708;2022-09-01T00:30:32;11.90;83.40
48208;DHT22;33997;53.278;9.708;2022-09-01T00:32:58;11.90;83.90
48208;DHT22;33997;53.278;9.708;2022-09-01T00:35:23;11.90;84.10
48208;DHT22;33997;53.278;9.708;2022-09-01T00:37:49;11.90;84.10
48208;DHT22;33997;53.278;9.708;2022-09-01T00:40:16;11.90;84.40
48208;DHT22;33997;53.278;9.708;2022-09-01T00:42:44;11.80;84.10
48208;DHT22;33997;53.278;9.708;2022-09-01T00:45:11;11.80;84.20
48208;DHT22;33997;53.278;9.708;2022-09-01T00:47:37;11.80;84.60
48208;DHT22;33997;53.278;9.708;2022-09-01T00:50:05;11.80;84.70
48208;DHT22;33997;53.278;9.708;2022-09-01T00:52:37;11.90;85.00
48208;DHT22;33997;53.278;9.708;2022-09-01T00:55:15;11.90;85.20
48208;DHT22;33997;53.278;9.708;2022-09-01T00:57:41;12.00;85.00
48208;DHT22;33997;53.278;9.708;2022-09-01T01:00:17;12.00;85.10
48208;DHT22;33997;53.278;9.708;2022-09-01T01:02:43;12.00;85.10
48208;DHT22;33997;53.278;9.708;2022-09-01T01:05:12;12.00;85.00
48208;DHT22;33997;53.278;9.708;2022-09-01T01:07:38;12.10;85.20
48208;DHT22;33997;53.278;9.708;2022-09-01T01:10:09;12.10;85.00
48208;DHT22;33997;53.278;9.708;2022-09-01T01:12:37;12.10;85.20
48208;DHT22;33997;53.278;9.708;2022-09-01T01:15:06;12.10;85.10
48208;DHT22;33997;53.278;9.708;2022-09-01T01:17:33;12.10;85.20
48208;DHT22;33997;53.278;9.708;2022-09-01T01:19:59;12.00;85.10
48208;DHT22;33997;53.278;9.708;2022-09-01T01:25:46;12.00;85.40
48208;DHT22;33997;53.278;9.708;2022-09-01T01:28:23;12.00;85.30
48208;DHT22;33997;53.278;9.708;2022-09-01T01:31:14;11.90;85.00
48208;DHT22;33997;53.278;9.708;2022-09-01T01:33:45;11.80;85.40
48208;DHT22;33997;53.278;9.708;2022-09-01T01:36:15;11.80;85.50
48208;DHT22;33997;53.278;9.708;2022-09-01T01:38:43;11.70;85.60
48208;DHT22;33997;53.278;9.708;2022-09-01T01:41:10;11.70;85.50
48208;DHT22;33997;53.278;9.708;2022-09-01T01:43:37;11.60;85.50
48208;DHT22;33997;53.278;9.708;2022-09-01T01:46:06;11.60;86.00
48208;DHT22;33997;53.278;9.708;2022-09-01T01:48:33;11.50;86.20
48208;DHT22;33997;53.278;9.708;2022-09-01T01:51:01;11.50;86.00
48208;DHT22;33997;53.278;9.708;2022-09-01T01:53:28;11.40;86.20
48208;DHT22;33997;53.278;9.708;2022-09-01T01:55:53;11.40;86.70
48208;DHT22;33997;53.278;9.708;2022-09-01T01:58:23;11.40;86.60
48208;DHT22;33997;53.278;9.708;2022-09-01T02:00:51;11.30;87.00
48208;DHT22;33997;53.278;9.708;2022-09-01T02:03:20;11.30;86.90
48208;DHT22;33997;53.278;9.708;2022-09-01T02:05:48;11.20;87.10
48208;DHT22;33997;53.278;9.708;2022-09-01T02:08:15;11.20;87.60
48208;DHT22;33997;53.278;9.708;2022-09-01T02:10:44;11.20;87.60
48208;DHT22;33997;53.278;9.708;2022-09-01T02:13:13;11.10;87.40
48208;DHT22;33997;53.278;9.708;2022-09-01T02:15:48;11.10;87.40
48208;DHT22;33997;53.278;9.708;2022-09-01T02:18:20;11.10;87.30
48208;DHT22;33997;53.278;9.708;2022-09-01T02:20:49;11.10;87.90
48208;DHT22;33997;53.278;9.708;2022-09-01T02:23:16;11.00;87.80
48208;DHT22;33997;53.278;9.708;2022-09-01T02:25:48;11.00;87.70
48208;DHT22;33997;53.278;9.708;2022-09-01T02:28:16;11.00;88.20
48208;DHT22;33997;53.278;9.708;2022-09-01T02:30:47;11.00;88.20
48208;DHT22;33997;53.278;9.708;2022-09-01T02:33:25;10.90;87.90
48208;DHT22;33997;53.278;9.708;2022-09-01T02:35:54;10.90;88.20
48208;DHT22;33997;53.278;9.708;2022-09-01T02:38:21;10.80;88.00
48208;DHT22;33997;53.278;9.708;2022-09-01T02:40:51;10.80;88.20
48208;DHT22;33997;53.278;9.708;2022-09-01T02:43:18;10.70;88.40
48208;DHT22;33997;53.278;9.708;2022-09-01T02:45:46;10.60;88.80
48208;DHT22;33997;53.278;9.708;2022-09-01T02:48:12;10.70;89.10
48208;DHT22;33997;53.278;9.708;2022-09-01T02:50:40;10.60;89.20
48208;DHT22;33997;53.278;9.708;2022-09-01T02:53:06;10.60;89.40
48208;DHT22;33997;53.278;9.708;2022-09-01T02:55:38;10.60;89.60
48208;DHT22;33997;53.278;9.708;2022-09-01T02:58:04;10.60;89.70
48208;DHT22;33997;53.278;9.708;2022-09-01T03:00:30;10.60;89.70
48208;DHT22;33997;53.278;9.708;2022-09-01T03:02:59;10.60;90.00
48208;DHT22;33997;53.278;9.708;2022-09-01T03:05:27;10.50;89.80
48208;DHT22;33997;53.278;9.708;2022-09-01T03:07:56;10.50;89.80
48208;DHT22;33997;53.278;9.708;2022-09-01T03:10:26;10.40;89.70
48208;DHT22;33997;53.278;9.708;2022-09-01T03:12:55;10.40;89.60
48208;DHT22;33997;53.278;9.708;2022-09-01T03:15:20;10.40;89.80
48208;DHT22;33997;53.278;9.708;2022-09-01T03:17:47;10.30;89.50
48208;DHT22;33997;53.278;9.708;2022-09-01T03:20:13;10.30;89.90
48208;DHT22;33997;53.278;9.708;2022-09-01T03:22:39;10.30;90.00
48208;DHT22;33997;53.278;9.708;2022-09-01T03:25:04;10.30;90.00
48208;DHT22;33997;53.278;9.708;2022-09-01T03:27:30;10.30;90.00
48208;DHT22;33997;53.278;9.708;2022-09-01T03:29:55;10.30;90.10
48208;DHT22;33997;53.278;9.708;2022-09-01T03:32:21;10.30;90.90
48208;DHT22;33997;53.278;9.708;2022-09-01T03:34:46;10.40;91.10
48208;DHT22;33997;53.278;9.708;2022-09-01T03:37:12;10.40;91.30
48208;DHT22;33997;53.278;9.708;2022-09-01T03:39:37;10.40;91.40
48208;DHT22;33997;53.278;9.708;2022-09-01T03:42:03;10.50;91.50
48208;DHT22;33997;53.278;9.708;2022-09-01T03:44:29;10.50;91.60
48208;DHT22;33997;53.278;9.708;2022-09-01T03:46:54;10.60;92.00
48208;DHT22;33997;53.278;9.708;2022-09-01T03:49:22;10.60;92.00
48208;DHT22;33997;53.278;9.708;2022-09-01T03:51:49;10.60;91.90
48208;DHT22;33997;53.278;9.708;2022-09-01T03:54:17;10.60;92.00
48208;DHT22;33997;53.278;9.708;2022-09-01T03:56:43;10.60;92.00
48208;DHT22;33997;53.278;9.708;2022-09-01T03:59:09;10.60;91.90
48208;DHT22;33997;53.278;9.708;2022-09-01T04:01:42;10.50;91.90
48208;DHT22;33997;53.278;9.708;2022-09-01T04:04:09;10.50;92.00
48208;DHT22;33997;53.278;9.708;2022-09-01T04:06:39;10.50;91.90
48208;DHT22;33997;53.278;9.708;2022-09-01T04:09:04;10.40;91.80
48208;DHT22;33997;53.278;9.708;2022-09-01T04:11:30;10.30;91.70
48208;DHT22;33997;53.278;9.708;2022-09-01T04:13:58;10.30;91.50
48208;DHT22;33997;53.278;9.708;2022-09-01T04:16:29;10.20;91.50
48208;DHT22;33997;53.278;9.708;2022-09-01T04:19:17;10.20;91.50
48208;DHT22;33997;53.278;9.708;2022-09-01T04:21:57;10.10;91.50
48208;DHT22;33997;53.278;9.708;2022-09-01T04:24:26;10.10;91.80
48208;DHT22;33997;53.278;9.708;2022-09-01T04:26:57;10.10;92.00
48208;DHT22;33997;53.278;9.708;2022-09-01T04:29:23;10.30;92.80
48208;DHT22;33997;53.278;9.708;2022-09-01T04:31:57;10.30;92.80
48208;DHT22;33997;53.278;9.708;2022-09-01T04:34:26;10.30;93.00
48208;DHT22;33997;53.278;9.708;2022-09-01T04:36:52;10.40;93.50
48208;DHT22;33997;53.278;9.708;2022-09-01T04:39:20;10.50;93.60
48208;DHT22;33997;53.278;9.708;2022-09-01T04:41:45;10.60;93.70
48208;DHT22;33997;53.278;9.708;2022-09-01T04:44:12;10.70;93.90
48208;DHT22;33997;53.278;9.708;2022-09-01T04:46:41;10.70;93.80
48208;DHT22;33997;53.278;9.708;2022-09-01T04:49:11;10.80;93.90
48208;DHT22;33997;53.278;9.708;2022-09-01T04:51:43;10.80;93.70
48208;DHT22;33997;53.278;9.708;2022-09-01T04:54:09;10.80;93.80
48208;DHT22;33997;53.278;9.708;2022-09-01T04:56:42;10.90;93.90
48208;DHT22;33997;53.278;9.708;2022-09-01T04:59:09;10.90;94.00
48208;DHT22;33997;53.278;9.708;2022-09-01T05:01:37;11.00;93.90
48208;DHT22;33997;53.278;9.708;2022-09-01T05:04:19;11.00;94.00
48208;DHT22;33997;53.278;9.708;2022-09-01T05:06:49;11.10;93.90
48208;DHT22;33997;53.278;9.708;2022-09-01T05:09:17;11.20;93.90
48208;DHT22;33997;53.278;9.708;2022-09-01T05:11:42;11.20;93.80
48208;DHT22;33997;53.278;9.708;2022-09-01T05:14:10;11.30;93.70
48208;DHT22;33997;53.278;9.708;2022-09-01T05:16:36;11.30;93.70
48208;DHT22;33997;53.278;9.708;2022-09-01T05:19:06;11.30;93.60
48208;DHT22;33997;53.278;9.708;2022-09-01T05:21:39;11.40;93.60
48208;DHT22;33997;53.278;9.708;2022-09-01T05:24:05;11.50;93.70
48208;DHT22;33997;53.278;9.708;2022-09-01T05:26:32;11.50;93.60
48208;DHT22;33997;53.278;9.708;2022-09-01T05:29:02;11.60;93.50
48208;DHT22;33997;53.278;9.708;2022-09-01T05:31:29;11.60;93.60
48208;DHT22;33997;53.278;9.708;2022-09-01T05:33:59;11.70;93.50
48208;DHT22;33997;53.278;9.708;2022-09-01T05:36:26;11.80;93.40
48208;DHT22;33997;53.278;9.708;2022-09-01T05:38:52;11.80;93.20
48208;DHT22;33997;53.278;9.708;2022-09-01T05:41:19;11.80;93.00
48208;DHT22;33997;53.278;9.708;2022-09-01T05:43:48;11.90;92.90
48208;DHT22;33997;53.278;9.708;2022-09-01T05:46:22;12.00;92.90
48208;DHT22;33997;53.278;9.708;2022-09-01T05:48:51;12.00;92.90
48208;DHT22;33997;53.278;9.708;2022-09-01T05:51:20;12.10;92.90
48208;DHT22;33997;53.278;9.708;2022-09-01T05:53:47;12.10;92.50
48208;DHT22;33997;53.278;9.708;2022-09-01T05:56:16;12.20;92.50
48208;DHT22;33997;53.278;9.708;2022-09-01T05:58:44;12.30;92.30
48208;DHT22;33997;53.278;9.708;2022-09-01T06:01:18;12.30;92.30
48208;DHT22;33997;53.278;9.708;2022-09-01T06:03:47;12.40;92.10
48208;DHT22;33997;53.278;9.708;2022-09-01T06:06:14;12.60;92.20
48208;DHT22;33997;53.278;9.708;2022-09-01T06:08:41;12.60;91.90
48208;DHT22;33997;53.278;9.708;2022-09-01T06:11:07;12.90;91.80
48208;DHT22;33997;53.278;9.708;2022-09-01T06:13:38;12.90;91.60
48208;DHT22;33997;53.278;9.708;2022-09-01T06:16:07;13.10;91.30
48208;DHT22;33997;53.278;9.708;2022-09-01T06:18:34;13.30;91.00
48208;DHT22;33997;53.278;9.708;2022-09-01T06:21:02;13.40;90.40
48208;DHT22;33997;53.278;9.708;2022-09-01T06:23:28;13.50;90.10
48208;DHT22;33997;53.278;9.708;2022-09-01T06:25:54;13.60;89.80
48208;DHT22;33997;53.278;9.708;2022-09-01T06:28:20;13.70;89.70
48208;DHT22;33997;53.278;9.708;2022-09-01T06:30:47;13.90;88.60
48208;DHT22;33997;53.278;9.708;2022-09-01T06:33:13;14.00;88.40
48208;DHT22;33997;53.278;9.708;2022-09-01T06:35:40;14.10;88.10
48208;DHT22;33997;53.278;9.708;2022-09-01T06:38:08;14.30;87.40
48208;DHT22;33997;53.278;9.708;2022-09-01T06:40:34;14.40;86.70
48208;DHT22;33997;53.278;9.708;2022-09-01T06:43:03;14.50;86.40
48208;DHT22;33997;53.278;9.708;2022-09-01T06:45:37;14.60;85.70
48208;DHT22;33997;53.278;9.708;2022-09-01T06:48:03;14.70;85.40
48208;DHT22;33997;53.278;9.708;2022-09-01T06:50:29;14.80;84.90
48208;DHT22;33997;53.278;9.708;2022-09-01T06:52:54;14.90;84.60
48208;DHT22;33997;53.278;9.708;2022-09-01T06:55:38;15.00;84.10
48208;DHT22;33997;53.278;9.708;2022-09-01T06:58:05;15.10;84.00
48208;DHT22;33997;53.278;9.708;2022-09-01T07:00:32;15.20;83.40
48208;DHT22;33997;53.278;9.708;2022-09-01T07:02:59;15.20;83.30
48208;DHT22;33997;53.278;9.708;2022-09-01T07:05:31;15.30;83.50
48208;DHT22;33997;53.278;9.708;2022-09-01T07:07:58;15.50;81.70
48208;DHT22;33997;53.278;9.708;2022-09-01T07:10:25;15.50;81.50
48208;DHT22;33997;53.278;9.708;2022-09-01T07:12:53;15.60;80.70
48208;DHT22;33997;53.278;9.708;2022-09-01T07:15:20;15.70;79.50
48208;DHT22;33997;53.278;9.708;2022-09-01T07:17:55;15.70;78.90
48208;DHT22;33997;53.278;9.708;2022-09-01T07:20:26;15.80;78.10
48208;DHT22;33997;53.278;9.708;2022-09-01T07:22:55;15.90;77.80
48208;DHT22;33997;53.278;9.708;2022-09-01T07:25:20;16.00;77.40
48208;DHT22;33997;53.278;9.708;2022-09-01T07:27:46;16.00;75.30
48208;DHT22;33997;53.278;9.708;2022-09-01T07:30:19;16.10;75.10
48208;DHT22;33997;53.278;9.708;2022-09-01T07:32:46;16.10;75.60
48208;DHT22;33997;53.278;9.708;2022-09-01T07:35:14;16.20;74.90
48208;DHT22;33997;53.278;9.708;2022-09-01T07:37:40;16.20;74.10
48208;DHT22;33997;53.278;9.708;2022-09-01T07:40:09;16.40;73.10
48208;DHT22;33997;53.278;9.708;2022-09-01T07:42:36;16.60;72.60
48208;DHT22;33997;53.278;9.708;2022-09-01T07:45:05;16.70;72.70
48208;DHT22;33997;53.278;9.708;2022-09-01T07:47:34;16.70;72.10
48208;DHT22;33997;53.278;9.708;2022-09-01T07:50:04;16.70;71.50
48208;DHT22;33997;53.278;9.708;2022-09-01T07:52:33;16.80;69.80
48208;DHT22;33997;53.278;9.708;2022-09-01T07:55:00;16.90;69.70
48208;DHT22;33997;53.278;9.708;2022-09-01T07:57:26;17.10;70.50
48208;DHT22;33997;53.278;9.708;2022-09-01T07:59:51;17.30;68.30
48208;DHT22;33997;53.278;9.708;2022-09-01T08:02:20;17.50;68.10
48208;DHT22;33997;53.278;9.708;2022-09-01T08:04:45;17.60;67.50
48208;DHT22;33997;53.278;9.708;2022-09-01T08:07:11;17.80;66.00
48208;DHT22;33997;53.278;9.708;2022-09-01T08:09:38;18.00;65.50
48208;DHT22;33997;53.278;9.708;2022-09-01T08:12:06;18.10;65.20
48208;DHT22;33997;53.278;9.708;2022-09-01T08:14:32;18.40;64.20
48208;DHT22;33997;53.278;9.708;2022-09-01T08:16:57;18.60;63.80
48208;DHT22;33997;53.278;9.708;2022-09-01T08:19:23;18.60;63.60
48208;DHT22;33997;53.278;9.708;2022-09-01T08:21:49;18.80;63.20
48208;DHT22;33997;53.278;9.708;2022-09-01T08:24:15;18.90;61.50
48208;DHT22;33997;53.278;9.708;2022-09-01T08:26:40;19.00;60.90
48208;DHT22;33997;53.278;9.708;2022-09-01T08:29:06;19.20;59.00
48208;DHT22;33997;53.278;9.708;2022-09-01T08:31:31;19.00;59.50
48208;DHT22;33997;53.278;9.708;2022-09-01T08:33:58;19.30;58.50
48208;DHT22;33997;53.278;9.708;2022-09-01T08:36:24;19.50;58.60
48208;DHT22;33997;53.278;9.708;2022-09-01T08:38:50;19.60;57.90
48208;DHT22;33997;53.278;9.708;2022-09-01T08:41:46;19.80;57.10
48208;DHT22;33997;53.278;9.708;2022-09-01T08:44:37;19.80;56.30
48208;DHT22;33997;53.278;9.708;2022-09-01T08:47:11;19.70;54.90
48208;DHT22;33997;53.278;9.708;2022-09-01T08:49:38;20.10;56.10
48208;DHT22;33997;53.278;9.708;2022-09-01T08:57:34;20.40;52.60
48208;DHT22;33997;53.278;9.708;2022-09-01T09:00:00;20.70;51.80
48208;DHT22;33997;53.278;9.708;2022-09-01T09:02:49;20.80;52.70
48208;DHT22;33997;53.278;9.708;2022-09-01T09:05:29;20.80;50.50
48208;DHT22;33997;53.278;9.708;2022-09-01T09:10:54;21.10;50.30
48208;DHT22;33997;53.278;9.708;2022-09-01T09:16:26;21.40;45.80
48208;DHT22;33997;53.278;9.708;2022-09-01T09:18:57;21.70;47.30
48208;DHT22;33997;53.278;9.708;2022-09-01T09:21:32;21.60;45.50
48208;DHT22;33997;53.278;9.708;2022-09-01T09:26:31;21.80;46.30
48208;DHT22;33997;53.278;9.708;2022-09-01T09:28:57;21.80;45.20
48208;DHT22;33997;53.278;9.708;2022-09-01T09:31:26;21.60;45.20
48208;DHT22;33997;53.278;9.708;2022-09-01T09:33:52;21.60;45.80
48208;DHT22;33997;53.278;9.708;2022-09-01T09:36:20;22.00;45.70
48208;DHT22;33997;53.278;9.708;2022-09-01T09:38:46;22.20;44.00
48208;DHT22;33997;53.278;9.708;2022-09-01T09:41:21;22.10;43.80
48208;DHT22;33997;53.278;9.708;2022-09-01T09:43:58;22.30;43.90
48208;DHT22;33997;53.278;9.708;2022-09-01T09:46:37;22.70;43.60
48208;DHT22;33997;53.278;9.708;2022-09-01T09:49:26;22.80;42.90
48208;DHT22;33997;53.278;9.708;2022-09-01T09:54:31;22.90;40.10
48208;DHT22;33997;53.278;9.708;2022-09-01T09:57:10;23.00;40.60
48208;DHT22;33997;53.278;9.708;2022-09-01T10:02:31;23.00;40.50
48208;DHT22;33997;53.278;9.708;2022-09-01T10:04:59;23.20;38.30
48208;DHT22;33997;53.278;9.708;2022-09-01T10:07:36;23.30;40.90
48208;DHT22;33997;53.278;9.708;2022-09-01T10:10:10;23.40;39.30
48208;DHT22;33997;53.278;9.708;2022-09-01T10:12:53;23.50;40.20
48208;DHT22;33997;53.278;9.708;2022-09-01T10:15:21;23.60;40.10
48208;DHT22;33997;53.278;9.708;2022-09-01T10:17:48;23.90;38.70
48208;DHT22;33997;53.278;9.708;2022-09-01T10:20:21;24.00;39.00
48208;DHT22;33997;53.278;9.708;2022-09-01T10:22:48;23.80;38.90
48208;DHT22;33997;53.278;9.708;2022-09-01T10:25:34;24.00;39.20
48208;DHT22;33997;53.278;9.708;2022-09-01T10:28:20;23.80;39.20
48208;DHT22;33997;53.278;9.708;2022-09-01T10:30:51;24.00;37.10
48208;DHT22;33997;53.278;9.708;2022-09-01T10:33:19;24.00;38.60
48208;DHT22;33997;53.278;9.708;2022-09-01T10:35:48;23.80;37.50
48208;DHT22;33997;53.278;9.708;2022-09-01T10:38:18;24.00;38.60
48208;DHT22;33997;53.278;9.708;2022-09-01T10:40:46;24.00;36.80
48208;DHT22;33997;53.278;9.708;2022-09-01T10:46:06;23.40;37.00
48208;DHT22;33997;53.278;9.708;2022-09-01T10:48:33;23.80;38.00
48208;DHT22;33997;53.278;9.708;2022-09-01T10:53:38;24.50;36.90
48208;DHT22;33997;53.278;9.708;2022-09-01T11:04:14;25.20;35.10
48208;DHT22;33997;53.278;9.708;2022-09-01T11:09:19;25.30;34.30
48208;DHT22;33997;53.278;9.708;2022-09-01T11:15:33;24.90;36.40
48208;DHT22;33997;53.278;9.708;2022-09-01T11:17:37;24.60;36.00
48208;DHT22;33997;53.278;9.708;2022-09-01T11:22:40;25.10;33.90
48208;DHT22;33997;53.278;9.708;2022-09-01T11:30:20;25.20;35.50
48208;DHT22;33997;53.278;9.708;2022-09-01T11:32:50;25.50;34.50
48208;DHT22;33997;53.278;9.708;2022-09-01T11:35:19;25.50;35.30
48208;DHT22;33997;53.278;9.708;2022-09-01T11:37:52;25.90;34.70
48208;DHT22;33997;53.278;9.708;2022-09-01T11:40:23;26.00;34.90
48208;DHT22;33997;53.278;9.708;2022-09-01T11:42:51;25.70;35.20
48208;DHT22;33997;53.278;9.708;2022-09-01T11:45:26;25.40;34.70
48208;DHT22;33997;53.278;9.708;2022-09-01T11:47:59;26.40;34.50
48208;DHT22;33997;53.278;9.708;2022-09-01T11:50:33;26.20;34.30
48208;DHT22;33997;53.278;9.708;2022-09-01T11:53:02;25.90;34.40
48208;DHT22;33997;53.278;9.708;2022-09-01T11:55:42;26.00;32.90
48208;DHT22;33997;53.278;9.708;2022-09-01T11:58:10;26.60;32.90
48208;DHT22;33997;53.278;9.708;2022-09-01T12:00:39;26.70;33.20
48208;DHT22;33997;53.278;9.708;2022-09-01T12:03:24;27.50;32.50
48208;DHT22;33997;53.278;9.708;2022-09-01T12:05:56;28.20;31.00
48208;DHT22;33997;53.278;9.708;2022-09-01T12:08:25;27.00;31.60
48208;DHT22;33997;53.278;9.708;2022-09-01T12:11:10;27.90;31.20
48208;DHT22;33997;53.278;9.708;2022-09-01T12:13:38;28.00;32.00
48208;DHT22;33997;53.278;9.708;2022-09-01T12:16:06;28.70;32.10
48208;DHT22;33997;53.278;9.708;2022-09-01T12:18:35;27.90;32.50
48208;DHT22;33997;53.278;9.708;2022-09-01T12:21:05;27.20;32.80
48208;DHT22;33997;53.278;9.708;2022-09-01T12:23:40;26.00;33.30
48208;DHT22;33997;53.278;9.708;2022-09-01T12:26:26;25.70;35.30
48208;DHT22;33997;53.278;9.708;2022-09-01T12:28:53;25.20;35.60
48208;DHT22;33997;53.278;9.708;2022-09-01T12:31:23;25.10;36.10
48208;DHT22;33997;53.278;9.708;2022-09-01T12:33:50;25.00;37.20
48208;DHT22;33997;53.278;9.708;2022-09-01T12:36:26;24.50;37.40
48208;DHT22;33997;53.278;9.708;2022-09-01T12:38:54;24.80;37.10
48208;DHT22;33997;53.278;9.708;2022-09-01T12:41:35;25.50;37.10
48208;DHT22;33997;53.278;9.708;2022-09-01T12:47:06;27.70;32.40
48208;DHT22;33997;53.278;9.708;2022-09-01T12:49:41;26.90;33.00
48208;DHT22;33997;53.278;9.708;2022-09-01T12:54:44;25.40;35.00
48208;DHT22;33997;53.278;9.708;2022-09-01T12:57:20;25.40;35.30
48208;DHT22;33997;53.278;9.708;2022-09-01T13:03:03;25.90;35.10
48208;DHT22;33997;53.278;9.708;2022-09-01T13:05:37;25.50;35.40
48208;DHT22;33997;53.278;9.708;2022-09-01T13:08:11;25.00;36.50
48208;DHT22;33997;53.278;9.708;2022-09-01T13:10:40;24.60;37.00
48208;DHT22;33997;53.278;9.708;2022-09-01T13:13:07;24.60;36.50
48208;DHT22;33997;53.278;9.708;2022-09-01T13:15:35;24.40;37.10
48208;DHT22;33997;53.278;9.708;2022-09-01T13:18:01;24.50;37.20
48208;DHT22;33997;53.278;9.708;2022-09-01T13:20:26;25.50;34.50
48208;DHT22;33997;53.278;9.708;2022-09-01T13:22:52;26.50;34.60
48208;DHT22;33997;53.278;9.708;2022-09-01T13:25:19;27.50;33.40
48208;DHT22;33997;53.278;9.708;2022-09-01T13:27:46;28.70;32.70
48208;DHT22;33997;53.278;9.708;2022-09-01T13:30:17;29.10;29.00
48208;DHT22;33997;53.278;9.708;2022-09-01T13:32:43;29.30;29.80
48208;DHT22;33997;53.278;9.708;2022-09-01T13:35:10;29.50;28.50
48208;DHT22;33997;53.278;9.708;2022-09-01T13:37:36;29.90;28.20
48208;DHT22;33997;53.278;9.708;2022-09-01T13:40:02;30.40;27.80
48208;DHT22;33997;53.278;9.708;2022-09-01T13:42:29;29.90;27.60
48208;DHT22;33997;53.278;9.708;2022-09-01T13:44:54;30.60;27.50
48208;DHT22;33997;53.278;9.708;2022-09-01T13:47:20;29.70;28.20
48208;DHT22;33997;53.278;9.708;2022-09-01T13:49:45;29.90;26.40
48208;DHT22;33997;53.278;9.708;2022-09-01T13:52:11;29.90;28.40
48208;DHT22;33997;53.278;9.708;2022-09-01T13:54:37;30.60;28.00
48208;DHT22;33997;53.278;9.708;2022-09-01T13:57:02;30.80;27.70
48208;DHT22;33997;53.278;9.708;2022-09-01T13:59:28;31.40;27.90
48208;DHT22;33997;53.278;9.708;2022-09-01T14:01:54;30.30;28.40
48208;DHT22;33997;53.278;9.708;2022-09-01T14:04:20;29.20;29.60
48208;DHT22;33997;53.278;9.708;2022-09-01T14:06:47;28.80;31.60
48208;DHT22;33997;53.278;9.708;2022-09-01T14:09:13;28.90;30.90
48208;DHT22;33997;53.278;9.708;2022-09-01T14:11:39;29.60;30.80
48208;DHT22;33997;53.278;9.708;2022-09-01T14:14:05;30.20;28.50
48208;DHT22;33997;53.278;9.708;2022-09-01T14:16:31;30.80;28.90
48208;DHT22;33997;53.278;9.708;2022-09-01T14:18:57;30.40;28.60
48208;DHT22;33997;53.278;9.708;2022-09-01T14:21:24;28.90;30.80
48208;DHT22;33997;53.278;9.708;2022-09-01T14:23:50;29.10;30.30
48208;DHT22;33997;53.278;9.708;2022-09-01T14:26:16;30.00;29.70
48208;DHT22;33997;53.278;9.708;2022-09-01T14:28:43;30.90;28.50
48208;DHT22;33997;53.278;9.708;2022-09-01T14:31:12;30.10;28.50
48208;DHT22;33997;53.278;9.708;2022-09-01T14:33:39;28.50;29.90
48208;DHT22;33997;53.278;9.708;2022-09-01T14:36:06;27.60;32.20
48208;DHT22;33997;53.278;9.708;2022-09-01T14:38:32;26.90;32.70
48208;DHT22;33997;53.278;9.708;2022-09-01T14:40:58;26.30;34.50
48208;DHT22;33997;53.278;9.708;2022-09-01T14:43:26;26.00;35.50
48208;DHT22;33997;53.278;9.708;2022-09-01T14:46:05;25.10;36.00
48208;DHT22;33997;53.278;9.708;2022-09-01T14:48:32;24.90;37.70
48208;DHT22;33997;53.278;9.708;2022-09-01T14:50:58;24.90;37.80
48208;DHT22;33997;53.278;9.708;2022-09-01T14:53:25;24.60;37.80
48208;DHT22;33997;53.278;9.708;2022-09-01T14:55:52;25.60;39.20
48208;DHT22;33997;53.278;9.708;2022-09-01T14:58:18;27.40;35.00
48208;DHT22;33997;53.278;9.708;2022-09-01T15:00:43;28.30;31.90
48208;DHT22;33997;53.278;9.708;2022-09-01T15:03:09;29.50;29.90
48208;DHT22;33997;53.278;9.708;2022-09-01T15:05:35;29.90;30.50
48208;DHT22;33997;53.278;9.708;2022-09-01T15:08:01;30.90;28.40
48208;DHT22;33997;53.278;9.708;2022-09-01T15:10:27;30.80;29.30
48208;DHT22;33997;53.278;9.708;2022-09-01T15:12:54;31.90;28.40
48208;DHT22;33997;53.278;9.708;2022-09-01T15:15:20;31.50;28.80
48208;DHT22;33997;53.278;9.708;2022-09-01T15:17:46;30.20;30.00
48208;DHT22;33997;53.278;9.708;2022-09-01T15:20:12;28.70;32.20
48208;DHT22;33997;53.278;9.708;2022-09-01T15:22:56;27.50;33.80
48208;DHT22;33997;53.278;9.708;2022-09-01T15:25:21;26.70;35.40
48208;DHT22;33997;53.278;9.708;2022-09-01T15:27:47;26.20;37.00
48208;DHT22;33997;53.278;9.708;2022-09-01T15:30:13;25.60;37.80
48208;DHT22;33997;53.278;9.708;2022-09-01T15:32:40;24.80;39.40
48208;DHT22;33997;53.278;9.708;2022-09-01T15:35:07;24.40;39.70
48208;DHT22;33997;53.278;9.708;2022-09-01T15:37:33;23.70;40.50
48208;DHT22;33997;53.278;9.708;2022-09-01T15:39:59;23.20;41.80
48208;DHT22;33997;53.278;9.708;2022-09-01T15:42:25;22.90;42.20
48208;DHT22;33997;53.278;9.708;2022-09-01T15:44:51;22.70;42.40
48208;DHT22;33997;53.278;9.708;2022-09-01T15:47:17;22.50;43.20
48208;DHT22;33997;53.278;9.708;2022-09-01T15:49:42;22.30;44.20
48208;DHT22;33997;53.278;9.708;2022-09-01T15:52:08;23.90;43.10
48208;DHT22;33997;53.278;9.708;2022-09-01T15:54:37;25.50;40.20
48208;DHT22;33997;53.278;9.708;2022-09-01T15:57:03;26.90;36.30
48208;DHT22;33997;53.278;9.708;2022-09-01T15:59:29;27.50;34.70
48208;DHT22;33997;53.278;9.708;2022-09-01T16:01:54;28.00;34.20
48208;DHT22;33997;53.278;9.708;2022-09-01T16:04:20;28.50;33.20
48208;DHT22;33997;53.278;9.708;2022-09-01T16:06:46;29.00;32.50
48208;DHT22;33997;53.278;9.708;2022-09-01T16:09:13;29.60;31.80
48208;DHT22;33997;53.278;9.708;2022-09-01T16:11:39;30.30;31.10
48208;DHT22;33997;53.278;9.708;2022-09-01T16:14:05;30.60;30.30
48208;DHT22;33997;53.278;9.708;2022-09-01T16:19:23;29.60;29.90
48208;DHT22;33997;53.278;9.708;2022-09-01T16:22:15;29.70;31.20
48208;DHT22;33997;53.278;9.708;2022-09-01T16:24:47;30.20;30.50
48208;DHT22;33997;53.278;9.708;2022-09-01T16:27:17;29.50;31.40
48208;DHT22;33997;53.278;9.708;2022-09-01T16:29:47;29.60;31.40
48208;DHT22;33997;53.278;9.708;2022-09-01T16:32:13;29.30;32.00
48208;DHT22;33997;53.278;9.708;2022-09-01T16:34:42;29.30;32.00
48208;DHT22;33997;53.278;9.708;2022-09-01T16:37:34;28.80;32.60
48208;DHT22;33997;53.278;9.708;2022-09-01T16:48:37;27.50;35.00
48208;DHT22;33997;53.278;9.708;2022-09-01T16:51:16;27.50;34.70